MEA YSCB-TGEI

Flight info

Callsign MEA
Flight time N/A
Altitude 5500
Route YPFT YCOM YJIN
Aircraft PA24/L-SGDOL/C

Departure

Time 2026-05-07 02:59
Airport Canberra Airport (YSCB)

Arrival

Time N/A
Airport TGEI
Time Latitude Longitude Altitude Speed Heading
2026-05-07 02:30 -35.30289 149.18569 1857 ft 0 kts 308°
2026-05-07 02:45 -35.30288 149.18568 1884 ft 0 kts 308°
2026-05-07 02:49 -35.30284 149.18563 1857 ft 2 kts 311°
2026-05-07 02:49 -35.30266 149.18566 1857 ft 5 kts 43°
2026-05-07 02:49 -35.30245 149.18591 1858 ft 4 kts 53°
2026-05-07 02:49 -35.30272 149.18643 1859 ft 10 kts 129°
2026-05-07 02:50 -35.30318 149.18710 1861 ft 11 kts 130°
2026-05-07 02:50 -35.30368 149.18783 1864 ft 10 kts 130°
2026-05-07 02:50 -35.30419 149.18855 1867 ft 13 kts 128°
2026-05-07 02:50 -35.30477 149.18929 1870 ft 12 kts 134°
2026-05-07 02:51 -35.30528 149.19003 1874 ft 10 kts 130°
2026-05-07 02:51 -35.30579 149.19078 1878 ft 8 kts 127°
2026-05-07 02:51 -35.30609 149.19122 1879 ft 6 kts 130°
2026-05-07 02:51 -35.30633 149.19177 1880 ft 8 kts 109°
2026-05-07 02:52 -35.30659 149.19243 1880 ft 8 kts 139°
2026-05-07 02:52 -35.30716 149.19289 1882 ft 16 kts 130°
2026-05-07 02:52 -35.30809 149.19429 1881 ft 26 kts 133°
2026-05-07 02:52 -35.30929 149.19603 1880 ft 26 kts 131°
2026-05-07 02:53 -35.31030 149.19749 1884 ft 16 kts 133°
2026-05-07 02:53 -35.31074 149.19814 1887 ft 7 kts 132°
2026-05-07 02:53 -35.31083 149.19833 1888 ft 0 kts 113°
2026-05-07 02:57 -35.31081 149.19848 1889 ft 3 kts 65°
2026-05-07 02:57 -35.31081 149.19849 1889 ft 0 kts 63°
2026-05-07 02:58 -35.31074 149.19865 1884 ft 5 kts 55°
2026-05-07 02:58 -35.31038 149.19891 1886 ft 8 kts 20°
2026-05-07 02:58 -35.30975 149.19838 1885 ft 20 kts 310°
2026-05-07 02:59 -35.30727 149.19501 1949 ft 70 kts 295°
2026-05-07 02:59 -35.30418 149.19058 2132 ft 71 kts 292°
2026-05-07 02:59 -35.30185 149.18479 2425 ft 73 kts 278°
2026-05-07 02:59 -35.30298 149.17912 2753 ft 74 kts 225°
2026-05-07 03:00 -35.30773 149.17722 3002 ft 81 kts 180°
2026-05-07 03:00 -35.31338 149.17915 3310 ft 86 kts 172°
2026-05-07 03:00 -35.31899 149.18211 3564 ft 89 kts 168°
2026-05-07 03:00 -35.32450 149.18588 3792 ft 92 kts 163°
2026-05-07 03:01 -35.33024 149.18978 4044 ft 91 kts 170°
2026-05-07 03:01 -35.33604 149.19286 4277 ft 91 kts 175°
2026-05-07 03:01 -35.34187 149.19529 4565 ft 92 kts 176°
2026-05-07 03:01 -35.34781 149.19850 4801 ft 96 kts 171°
2026-05-07 03:02 -35.35407 149.20095 5074 ft 93 kts 188°
2026-05-07 03:02 -35.36017 149.20174 5347 ft 86 kts 188°
2026-05-07 03:02 -35.36628 149.20188 5570 ft 86 kts 195°
2026-05-07 03:02 -35.37256 149.20086 5682 ft 99 kts 198°
2026-05-07 03:03 -35.37969 149.19922 5737 ft 107 kts 201°
2026-05-07 03:03 -35.38699 149.19721 5873 ft 108 kts 203°
2026-05-07 03:03 -35.39469 149.19463 5839 ft 118 kts 200°
2026-05-07 03:03 -35.40285 149.19242 5882 ft 122 kts 199°
2026-05-07 03:04 -35.41124 149.19007 5665 ft 127 kts 199°
2026-05-07 03:04 -35.41982 149.18746 5488 ft 126 kts 199°
2026-05-07 03:04 -35.42833 149.18504 5463 ft 127 kts 198°
2026-05-07 03:04 -35.43700 149.18232 5467 ft 128 kts 201°
2026-05-07 03:05 -35.44548 149.17929 5507 ft 126 kts 202°
2026-05-07 03:05 -35.45404 149.17679 5554 ft 125 kts 197°
2026-05-07 03:05 -35.46258 149.17464 5572 ft 127 kts 191°
2026-05-07 03:05 -35.47154 149.17341 5532 ft 132 kts 195°
2026-05-07 03:06 -35.48051 149.17195 5594 ft 128 kts 197°
2026-05-07 03:06 -35.48946 149.17128 5606 ft 130 kts 185°
2026-05-07 03:06 -35.49849 149.17207 5658 ft 129 kts 184°
2026-05-07 03:06 -35.50751 149.17242 5623 ft 132 kts 186°
2026-05-07 03:07 -35.51667 149.17350 5642 ft 132 kts 182°
2026-05-07 03:07 -35.52551 149.17238 5684 ft 130 kts 212°
2026-05-07 03:07 -35.53388 149.16862 5676 ft 127 kts 194°
2026-05-07 03:07 -35.54282 149.16900 5719 ft 130 kts 183°
2026-05-07 03:08 -35.55186 149.16955 5743 ft 131 kts 185°
2026-05-07 03:08 -35.56101 149.17031 5714 ft 133 kts 181°
2026-05-07 03:08 -35.56993 149.17160 5849 ft 128 kts 182°
2026-05-07 03:08 -35.57900 149.17197 5827 ft 135 kts 190°
2026-05-07 03:09 -35.58829 149.17173 5854 ft 131 kts 189°
2026-05-07 03:09 -35.59784 149.17215 5699 ft 142 kts 185°
2026-05-07 03:09 -35.60749 149.17276 5693 ft 139 kts 182°
2026-05-07 03:09 -35.61741 149.17449 5468 ft 150 kts 171°
2026-05-07 03:10 -35.62692 149.18084 5400 ft 155 kts 163°
2026-05-07 03:10 -35.63663 149.18229 5554 ft 135 kts 192°
2026-05-07 03:10 -35.64560 149.17993 5477 ft 132 kts 203°
2026-05-07 03:10 -35.65444 149.17753 5509 ft 129 kts 199°
2026-05-07 03:11 -35.66008 149.17596 5557 ft 125 kts 194°
2026-05-07 03:11 -35.66895 149.17420 5484 ft 131 kts 194°
2026-05-07 03:11 -35.67804 149.17339 5504 ft 134 kts 189°
2026-05-07 03:11 -35.68724 149.17381 5503 ft 133 kts 192°
2026-05-07 03:12 -35.69633 149.17304 5501 ft 130 kts 189°
2026-05-07 03:12 -35.70543 149.17338 5502 ft 131 kts 186°
2026-05-07 03:12 -35.71454 149.17385 5506 ft 131 kts 186°
2026-05-07 03:12 -35.72359 149.17474 5503 ft 130 kts 186°
2026-05-07 03:13 -35.73252 149.17567 5507 ft 130 kts 180°
2026-05-07 03:13 -35.74149 149.17775 5506 ft 132 kts 181°
2026-05-07 03:13 -35.75050 149.17799 5506 ft 129 kts 199°
2026-05-07 03:13 -35.75896 149.17495 5503 ft 124 kts 203°
2026-05-07 03:14 -35.76745 149.17325 5495 ft 125 kts 195°
2026-05-07 03:14 -35.77623 149.17263 5503 ft 128 kts 193°
2026-05-07 03:14 -35.79400 149.17093 5505 ft 127 kts 196°
2026-05-07 03:15 -35.80262 149.16882 5508 ft 126 kts 199°
2026-05-07 03:15 -35.81123 149.16698 5504 ft 126 kts 196°
2026-05-07 03:15 -35.82001 149.16582 5509 ft 128 kts 193°
2026-05-07 03:15 -35.82889 149.16524 5507 ft 128 kts 187°
2026-05-07 03:16 -35.83774 149.16723 5504 ft 130 kts 177°
2026-05-07 03:16 -35.84662 149.16892 5502 ft 131 kts 188°
2026-05-07 03:16 -35.85559 149.16903 5503 ft 128 kts 194°
2026-05-07 03:16 -35.86438 149.16811 5503 ft 127 kts 193°
2026-05-07 03:17 -35.87330 149.16798 5501 ft 127 kts 182°
2026-05-07 03:17 -35.88225 149.16839 5504 ft 128 kts 189°
2026-05-07 03:17 -35.89111 149.16838 5502 ft 127 kts 188°
2026-05-07 03:17 -35.89989 149.16822 5514 ft 126 kts 192°
2026-05-07 03:18 -35.90860 149.16686 5502 ft 126 kts 199°
2026-05-07 03:18 -35.91723 149.16531 5493 ft 126 kts 195°
2026-05-07 03:18 -35.92575 149.16375 5496 ft 122 kts 197°
2026-05-07 03:18 -35.93419 149.16235 5498 ft 125 kts 194°
2026-05-07 03:19 -35.94289 149.16360 5505 ft 131 kts 179°
2026-05-07 03:19 -35.95206 149.16458 5510 ft 131 kts 192°
2026-05-07 03:19 -35.96113 149.16460 5502 ft 129 kts 187°
2026-05-07 03:19 -35.97016 149.16405 5504 ft 130 kts 196°
2026-05-07 03:20 -35.97897 149.16259 5489 ft 126 kts 197°
2026-05-07 03:20 -35.98756 149.16110 5496 ft 124 kts 197°
2026-05-07 03:20 -35.99594 149.15913 5497 ft 121 kts 197°
2026-05-07 03:20 -36.00434 149.15793 5500 ft 122 kts 191°
2026-05-07 03:21 -36.01298 149.15821 5501 ft 127 kts 185°
2026-05-07 03:21 -36.02177 149.16051 5504 ft 133 kts 179°
2026-05-07 03:21 -36.03083 149.16166 5502 ft 131 kts 190°
2026-05-07 03:21 -36.03972 149.16212 5510 ft 128 kts 183°
2026-05-07 03:22 -36.04858 149.16159 5493 ft 126 kts 200°
2026-05-07 03:22 -36.05706 149.15933 5495 ft 125 kts 202°
2026-05-07 03:22 -36.06552 149.15698 5497 ft 124 kts 197°
2026-05-07 03:22 -36.07416 149.15592 5497 ft 125 kts 192°
2026-05-07 03:23 -36.08273 149.15462 5495 ft 123 kts 200°
2026-05-07 03:23 -36.09113 149.15304 5494 ft 121 kts 190°
2026-05-07 03:23 -36.09963 149.15373 5497 ft 127 kts 187°
2026-05-07 03:23 -36.10836 149.15325 5495 ft 123 kts 194°
2026-05-07 03:24 -36.11699 149.15351 5493 ft 126 kts 184°
2026-05-07 03:24 -36.12559 149.15583 5491 ft 128 kts 181°
2026-05-07 03:24 -36.13440 149.15719 5495 ft 126 kts 186°
2026-05-07 03:24 -36.14315 149.15790 5496 ft 126 kts 189°
2026-05-07 03:25 -36.15193 149.15685 5496 ft 126 kts 200°
2026-05-07 03:25 -36.16025 149.15415 5502 ft 121 kts 203°
2026-05-07 03:25 -36.16832 149.15118 5495 ft 122 kts 205°
2026-05-07 03:25 -36.17640 149.14846 5489 ft 120 kts 200°
2026-05-07 03:26 -36.18478 149.14774 5493 ft 122 kts 188°
2026-05-07 03:26 -36.19329 149.14837 5492 ft 123 kts 183°
2026-05-07 03:26 -36.20180 149.15121 5444 ft 132 kts 176°
2026-05-07 03:26 -36.21064 149.15542 5245 ft 138 kts 164°
2026-05-07 03:27 -36.21916 149.16131 5227 ft 138 kts 169°
2026-05-07 03:27 -36.22790 149.16412 5323 ft 125 kts 201°
2026-05-07 03:27 -36.23528 149.15852 5049 ft 123 kts 234°
2026-05-07 03:27 -36.23831 149.14933 4950 ft 114 kts 256°
2026-05-07 03:28 -36.23857 149.13954 4789 ft 114 kts 262°
2026-05-07 03:28 -36.23995 149.13011 4676 ft 110 kts 245°
2026-05-07 03:28 -36.24224 149.12134 4559 ft 106 kts 244°
2026-05-07 03:28 -36.24390 149.11246 4534 ft 106 kts 252°
2026-05-07 03:29 -36.24495 149.10398 4781 ft 92 kts 254°
2026-05-07 03:29 -36.24612 149.09659 5064 ft 83 kts 244°
2026-05-07 03:29 -36.24794 149.09016 5319 ft 78 kts 239°
2026-05-07 03:29 -36.25066 149.08433 5539 ft 75 kts 233°
2026-05-07 03:30 -36.25355 149.07895 5753 ft 76 kts 231°
2026-05-07 03:30 -36.25632 149.07360 6055 ft 72 kts 237°
2026-05-07 03:30 -36.25855 149.06820 6340 ft 71 kts 237°
2026-05-07 03:30 -36.26097 149.06253 6496 ft 79 kts 237°
2026-05-07 03:31 -36.26385 149.05623 6570 ft 91 kts 235°
2026-05-07 03:31 -36.26729 149.04900 6602 ft 103 kts 236°
2026-05-07 03:31 -36.27108 149.04055 6505 ft 118 kts 239°
2026-05-07 03:31 -36.27484 149.03144 6537 ft 119 kts 238°
2026-05-07 03:32 -36.27864 149.02243 6588 ft 119 kts 240°
2026-05-07 03:32 -36.28162 149.01266 6558 ft 123 kts 245°
2026-05-07 03:32 -36.28486 149.00211 6365 ft 134 kts 242°
2026-05-07 03:32 -36.28857 148.99216 6502 ft 122 kts 239°
2026-05-07 03:33 -36.29251 148.98287 6518 ft 122 kts 238°
2026-05-07 03:33 -36.29721 148.97399 6459 ft 127 kts 231°
2026-05-07 03:33 -36.30248 148.96522 6421 ft 127 kts 229°
2026-05-07 03:33 -36.30809 148.95718 6496 ft 121 kts 230°
2026-05-07 03:34 -36.31238 148.94808 6484 ft 124 kts 247°
2026-05-07 03:34 -36.31444 148.93755 6488 ft 127 kts 250°
2026-05-07 03:34 -36.31714 148.92716 6490 ft 126 kts 244°
2026-05-07 03:34 -36.32023 148.91700 6482 ft 125 kts 244°
2026-05-07 03:35 -36.32304 148.90686 6491 ft 126 kts 248°
2026-05-07 03:35 -36.32535 148.89627 6491 ft 128 kts 249°
2026-05-07 03:35 -36.32796 148.88570 6488 ft 128 kts 248°
2026-05-07 03:35 -36.33112 148.87565 6485 ft 125 kts 241°
2026-05-07 03:36 -36.33525 148.86630 6481 ft 122 kts 234°
2026-05-07 03:36 -36.34015 148.85788 6482 ft 118 kts 234°
2026-05-07 03:36 -36.34464 148.84942 6487 ft 119 kts 238°
2026-05-07 03:36 -36.34846 148.84020 6493 ft 121 kts 240°
2026-05-07 03:37 -36.35106 148.83034 6493 ft 121 kts 251°
2026-05-07 03:37 -36.35354 148.82032 6493 ft 121 kts 245°
2026-05-07 03:37 -36.35660 148.81068 6490 ft 119 kts 245°
2026-05-07 03:37 -36.35942 148.80103 6497 ft 119 kts 246°
2026-05-07 03:38 -36.36244 148.79137 6497 ft 121 kts 240°
2026-05-07 03:38 -36.36601 148.78196 6500 ft 121 kts 244°
2026-05-07 03:38 -36.36883 148.77213 6498 ft 121 kts 241°
2026-05-07 03:38 -36.37258 148.76292 6507 ft 118 kts 241°
2026-05-07 03:39 -36.37608 148.75369 6500 ft 117 kts 240°
2026-05-07 03:39 -36.37962 148.74447 6370 ft 119 kts 236°
2026-05-07 03:39 -36.38394 148.73662 6275 ft 104 kts 231°
2026-05-07 03:39 -36.38807 148.72954 6140 ft 99 kts 234°
2026-05-07 03:40 -36.39199 148.72243 5993 ft 100 kts 234°
2026-05-07 03:40 -36.39620 148.71562 5833 ft 98 kts 231°
2026-05-07 03:40 -36.40099 148.70943 5607 ft 100 kts 223°
2026-05-07 03:40 -36.40616 148.70412 5562 ft 93 kts 220°
2026-05-07 03:41 -36.41099 148.69894 5400 ft 96 kts 227°
2026-05-07 03:41 -36.41532 148.69255 5301 ft 97 kts 232°
2026-05-07 03:41 -36.41909 148.68583 5256 ft 94 kts 239°
2026-05-07 03:41 -36.42115 148.67778 5163 ft 100 kts 249°
2026-05-07 03:42 -36.42257 148.66956 5155 ft 97 kts 253°
2026-05-07 03:42 -36.42425 148.66140 5067 ft 96 kts 245°
2026-05-07 03:42 -36.42753 148.65456 4795 ft 94 kts 221°
2026-05-07 03:42 -36.43252 148.64927 4584 ft 94 kts 226°
2026-05-07 03:43 -36.43639 148.64356 4492 ft 76 kts 241°
2026-05-07 03:43 -36.43775 148.63785 4371 ft 68 kts 261°
2026-05-07 03:43 -36.43680 148.63173 4249 ft 74 kts 275°
2026-05-07 03:43 -36.43492 148.62619 4095 ft 64 kts 272°
2026-05-07 03:44 -36.43354 148.62104 3911 ft 59 kts 265°
2026-05-07 03:44 -36.43265 148.61624 3744 ft 59 kts 262°
2026-05-07 03:44 -36.43192 148.61131 3583 ft 59 kts 273°
2026-05-07 03:44 -36.43036 148.60657 3477 ft 62 kts 275°
2026-05-07 03:45 -36.42890 148.60173 3404 ft 52 kts 273°
2026-05-07 03:45 -36.42804 148.59856 3416 ft 52 kts 291°
2026-05-07 03:45 -36.42626 148.59423 3570 ft 59 kts 270°
2026-05-07 03:45 -36.42452 148.58907 3748 ft 70 kts 281°
2026-05-07 03:46 -36.42092 148.58473 3828 ft 85 kts 330°
2026-05-07 03:46 -36.41412 148.58640 3951 ft 120 kts 19°
2026-05-07 03:46 -36.40841 148.59473 4093 ft 133 kts 72°
2026-05-07 03:46 -36.40735 148.60594 4450 ft 127 kts 109°
2026-05-07 03:47 -36.40785 148.61657 4635 ft 125 kts 102°
2026-05-07 03:47 -36.40835 148.62746 4679 ft 125 kts 108°
2026-05-07 03:47 -36.40967 148.63712 4802 ft 100 kts 137°
2026-05-07 03:47 -36.41467 148.64122 4776 ft 74 kts 192°
2026-05-07 03:48 -36.41927 148.64121 4538 ft 63 kts 202°
2026-05-07 03:48 -36.42335 148.63992 4440 ft 58 kts 211°
2026-05-07 03:48 -36.42682 148.63792 4322 ft 53 kts 219°
2026-05-07 03:48 -36.43010 148.63570 4220 ft 54 kts 216°
2026-05-07 03:49 -36.43320 148.63300 4182 ft 54 kts 228°
2026-05-07 03:49 -36.43515 148.62888 4098 ft 61 kts 252°
2026-05-07 03:49 -36.43513 148.62333 4061 ft 68 kts 266°
2026-05-07 03:49 -36.43372 148.61769 3856 ft 70 kts 275°
2026-05-07 03:50 -36.43192 148.61203 3623 ft 69 kts 272°
2026-05-07 03:50 -36.43040 148.60675 3465 ft 62 kts 273°
2026-05-07 03:50 -36.42911 148.60213 3400 ft 49 kts 285°
2026-05-07 03:50 -36.42832 148.59944 3411 ft 18 kts 297°
2026-05-07 03:51 -36.42786 148.59900 3412 ft 7 kts 14°
2026-05-07 03:51 -36.42778 148.59902 3412 ft 0 kts 16°
2026-05-07 03:57 -36.42774 148.59918 3412 ft 8 kts 106°
2026-05-07 03:57 -36.42780 148.59937 3410 ft 0 kts 112°
2026-05-07 03:59 -36.42780 148.59938 3410 ft 3 kts 112°
2026-05-07 04:00 -36.42836 148.60074 3404 ft 27 kts 117°
2026-05-07 04:00 -36.42914 148.60258 3391 ft 17 kts 120°
2026-05-07 04:00 -36.42938 148.60291 3388 ft 6 kts 292°
2026-05-07 04:00 -36.42854 148.60015 3418 ft 58 kts 287°
2026-05-07 04:01 -36.42738 148.59697 3563 ft 57 kts 272°
2026-05-07 04:01 -36.42598 148.59238 3743 ft 58 kts 270°
2026-05-07 04:01 -36.42501 148.58766 3897 ft 56 kts 263°
2026-05-07 04:01 -36.42471 148.58256 4069 ft 63 kts 254°
2026-05-07 04:02 -36.42506 148.57692 4369 ft 67 kts 254°
2026-05-07 04:02 -36.42532 148.57121 4686 ft 69 kts 256°
2026-05-07 04:02 -36.42610 148.56504 4938 ft 74 kts 247°
2026-05-07 04:02 -36.42757 148.55881 5189 ft 75 kts 243°
2026-05-07 04:03 -36.42928 148.55292 5474 ft 71 kts 241°
2026-05-07 04:03 -36.43218 148.54771 5675 ft 78 kts 232°
2026-05-07 04:03 -36.43511 148.54123 5705 ft 92 kts 244°
2026-05-07 04:03 -36.43764 148.53365 5737 ft 96 kts 245°
2026-05-07 04:04 -36.43988 148.52595 5831 ft 94 kts 244°
2026-05-07 04:04 -36.44200 148.51812 5883 ft 97 kts 245°
2026-05-07 04:04 -36.44428 148.51014 5923 ft 100 kts 251°
2026-05-07 04:04 -36.44557 148.50160 6018 ft 101 kts 251°
2026-05-07 04:05 -36.44647 148.49288 6025 ft 103 kts 258°
2026-05-07 04:05 -36.44734 148.48402 6074 ft 104 kts 260°
2026-05-07 04:05 -36.44723 148.47478 5963 ft 108 kts 260°
2026-05-07 04:05 -36.44697 148.46549 5966 ft 105 kts 269°
2026-05-07 04:06 -36.44610 148.45627 5956 ft 107 kts 266°
2026-05-07 04:06 -36.44532 148.44716 5954 ft 105 kts 268°
2026-05-07 04:06 -36.44422 148.43822 5957 ft 105 kts 270°
2026-05-07 04:06 -36.44270 148.42938 5959 ft 105 kts 272°
2026-05-07 04:07 -36.44134 148.42044 5964 ft 105 kts 273°
2026-05-07 04:07 -36.43962 148.41163 5972 ft 108 kts 275°
2026-05-07 04:07 -36.43784 148.40249 5970 ft 109 kts 273°
2026-05-07 04:07 -36.43672 148.39451 6149 ft 42 kts 257°
2026-05-07 04:08 -36.43611 148.39487 6147 ft 0 kts 323°
2026-05-07 04:08 -36.43800 148.40058 7186 ft 3233 kts 229°
2026-05-07 04:08 -36.45415 148.48193 5695 ft 0 kts 279°
2026-05-07 04:08 -36.45292 148.47402 5566 ft 79 kts 269°
2026-05-07 04:09 -36.45160 148.46738 5275 ft 85 kts 272°
2026-05-07 04:09 -36.45027 148.45914 4685 ft 100 kts 273°
2026-05-07 04:09 -36.44902 148.45104 4359 ft 92 kts 270°
2026-05-07 04:09 -36.44792 148.44333 4114 ft 86 kts 272°
2026-05-07 04:10 -36.44792 148.47509 6936 ft 84 kts 279°
2026-05-07 04:10 -36.44529 148.46744 5668 ft 92 kts 278°
2026-05-07 04:10 -36.44436 148.46427 4903 ft 148 kts 281°
2026-05-07 04:11 -36.44426 148.46390 4810 ft 155 kts 280°